Cheboygan, Michigan
Current Conditions -  °F | °C
As of 6:18 PM on Tuesday 27 Jan 2015 (Local Time) from KSLH Reporting Station
Clear Clear  
Wind Chill: 11°   Ceiling: Unl
Heat Index: 11°   Visibility: 10mi
Dew Point:   Wind: 0mph
Humidity: 69%   Direction: NA
Pressure: 30.25"   Gusts: NA
Location:  45.65°N, 84.47°W
Report Text: KSLH 272318Z AUTO 00000KT 10SM CLR M11/M16 A3025 RMK AO2 T11141161
Loading
Personal Weather Stations






























Interactive Weather Map New forecast layout! Learn more

10-Day Weather Forecast

Advertisements
Track Severe Weather on mobile